Piney Point, Maryland
Current Conditions -  °F | °C
As of 5:53 PM on Thursday 23 Oct 2014 (Local Time) from KNUI Reporting Station
Overcast Overcast  
Wind Chill: 62°   Ceiling: 4900
Heat Index: 62°   Visibility: 10mi
Dew Point: 43°   Wind: 13mph
Humidity: 50%   Direction: 300°WNW
Pressure: 29.84"   Gusts: 24mph
Location:  38.14°N, 76.51°W
Report Text: KNUI 232153Z AUTO 30011G21KT 10SM OVC049 17/06 A2984 RMK AO2 SLP104 T01670061
Loading
Personal Weather Stations






























Interactive Weather Map
Tropical Storm Tracking
New forecast layout! Learn more

10-Day Weather Forecast

Advertisements
Track Severe Weather on mobile